Time;durP1;ratioP1;P1;durP2;ratioP2;P2;SDS_P1;SDS_P2;PMS_P1;PMS_P2;Temp;Humidity;BMP_temperature;BMP_pressure;BME280_temperature;BME280_humidity;BME280_pressure;Samples;Min_cycle;Max_cycle;Signal;HPM_P1;HPM_P2
2021/12/23 00:00:52;;;;;;;0.82;0.82;;;;;;;13.34;60.85;99452.69;3136195;28;20052;-68
2021/12/23 00:02:24;;;;;;;0.77;0.75;;;;;;;13.33;60.78;99453.69;3135190;28;20498;-69
2021/12/23 00:03:56;;;;;;;;;;;;;;;13.33;60.95;99457.19;3130746;28;20040;-69
2021/12/23 00:05:27;;;;;;;0.70;0.70;;;;;;;13.33;61.01;99461.66;3132402;28;20007;-68
2021/12/23 00:06:59;;;;;;;0.80;0.80;;;;;;;13.32;61.01;99455.50;3136518;28;20468;-68
2021/12/23 00:08:33;;;;;;;1.40;1.00;;;;;;;13.31;60.93;99453.81;3133817;28;20767;-69
2021/12/23 00:10:08;;;;;;;0.70;0.70;;;;;;;13.33;60.94;99451.00;3133650;28;20128;-68
2021/12/23 00:11:40;;;;;;;1.10;0.77;;;;;;;13.33;60.84;99453.69;3132292;28;20049;-68
2021/12/23 00:13:12;;;;;;;0.82;0.80;;;;;;;13.31;61.21;99451.16;3134290;28;20076;-69
2021/12/23 00:14:45;;;;;;;0.70;0.63;;;;;;;13.32;60.90;99458.16;3134585;28;21275;-69
2021/12/23 00:16:19;;;;;;;0.82;0.70;;;;;;;13.32;60.91;99460.00;3133342;28;20048;-69
2021/12/23 00:17:57;;;;;;;1.42;0.80;;;;;;;13.29;60.90;99460.28;3136393;28;20048;-69
2021/12/23 00:19:46;;;;;;;0.73;0.73;;;;;;;13.30;60.92;99467.31;3135298;28;20127;-69
2021/12/23 00:23:27;;;;;;;0.80;0.80;;;;;;;13.29;60.85;99446.94;3136939;28;20216;-69
2021/12/23 00:24:58;;;;;;;1.17;0.80;;;;;;;13.29;60.94;99454.94;3133415;28;20048;-69
2021/12/23 00:26:31;;;;;;;;;;;;;;;13.27;60.93;99456.94;3129776;28;20056;-68
2021/12/23 00:28:04;;;;;;;0.95;0.80;;;;;;;13.27;61.07;99456.94;3136779;28;20450;-69
2021/12/23 00:29:36;;;;;;;0.85;0.77;;;;;;;13.27;61.01;99452.44;3138700;28;20089;-70
2021/12/23 00:31:09;;;;;;;1.05;1.00;;;;;;;13.27;60.84;99457.78;3133856;28;20132;-69
2021/12/23 00:32:40;;;;;;;1.58;0.80;;;;;;;13.28;61.03;99456.78;3136803;28;20060;-68
2021/12/23 00:34:12;;;;;;;1.08;0.77;;;;;;;13.28;60.93;99458.59;3139460;28;20072;-69
2021/12/23 00:35:44;;;;;;;0.60;0.60;;;;;;;13.27;60.77;99449.78;3128408;28;20445;-69
2021/12/23 00:37:17;;;;;;;0.85;0.80;;;;;;;13.26;60.88;99458.78;3139298;28;20135;-69
2021/12/23 00:38:52;;;;;;;2.08;0.75;;;;;;;13.26;60.80;99455.25;3135452;28;20059;-69
2021/12/23 00:40:25;;;;;;;1.30;0.85;;;;;;;13.25;60.93;99456.22;3140255;28;20078;-68
2021/12/23 00:42:05;;;;;;;0.57;0.57;;;;;;;13.25;60.91;99459.72;3136331;28;20684;-69
2021/12/23 00:43:39;;;;;;;0.73;0.55;;;;;;;13.26;60.88;99455.25;3135309;28;20485;-69
2021/12/23 00:45:11;;;;;;;1.10;0.90;;;;;;;13.24;61.01;99455.38;3137796;28;20131;-69
2021/12/23 00:46:43;;;;;;;0.80;0.75;;;;;;;13.25;60.99;99456.22;3136470;28;20041;-69
2021/12/23 00:48:14;;;;;;;;;;;;;;;13.25;61.04;99450.88;3138195;28;20140;-68
2021/12/23 00:49:46;;;;;;;0.57;0.55;;;;;;;13.24;60.93;99452.72;3136789;28;19924;-69
2021/12/23 00:51:17;;;;;;;;;;;;;;;13.22;60.84;99449.34;3134673;28;20135;-69
2021/12/23 00:52:55;;;;;;;1.05;0.95;;;;;;;13.22;60.99;99449.34;3137698;28;19943;-68
2021/12/23 00:54:27;;;;;;;0.75;0.70;;;;;;;13.22;60.84;99457.34;3136671;28;20124;-69
2021/12/23 00:55:57;;;;;;;;;;;;;;;13.22;60.91;99457.34;3138334;28;21203;-68
2021/12/23 00:57:35;;;;;;;1.15;1.05;;;;;;;13.22;60.96;99456.50;3138855;28;19924;-70
2021/12/23 00:59:09;;;;;;;0.85;0.85;;;;;;;13.22;60.93;99459.19;3139473;28;20044;-68
2021/12/23 01:00:41;;;;;;;0.55;0.55;;;;;;;13.20;60.88;99453.97;3133976;28;20127;-69
2021/12/23 01:02:13;;;;;;;1.15;0.80;;;;;;;13.19;61.01;99455.81;3137234;28;20045;-69
2021/12/23 01:03:45;;;;;;;0.68;0.68;;;;;;;13.19;61.01;99453.16;3140064;28;20542;-69
2021/12/23 01:05:18;;;;;;;;;;;;;;;13.19;60.85;99457.66;3133978;28;20076;-70
2021/12/23 01:06:50;;;;;;;1.10;1.00;;;;;;;13.17;61.03;99452.47;3137110;28;20340;-70
2021/12/23 01:08:21;;;;;;;;;;;;;;;13.19;60.87;99450.50;3136802;28;20076;-69
2021/12/23 01:09:53;;;;;;;0.60;0.60;;;;;;;13.18;61.05;99451.50;3131843;28;19925;-70
2021/12/23 01:11:26;;;;;;;1.02;0.93;;;;;;;13.18;60.99;99450.66;3133573;28;20128;-70
2021/12/23 01:13:01;;;;;;;0.63;0.63;;;;;;;13.17;60.94;99447.13;3139158;28;20489;-70
2021/12/23 01:14:42;;;;;;;0.75;0.65;;;;;;;13.17;60.99;99449.78;3135064;28;20060;-68
2021/12/23 01:16:25;;;;;;;0.98;0.98;;;;;;;13.18;61.02;99445.31;3138172;28;20095;-69
2021/12/23 01:17:56;;;;;;;0.75;0.70;;;;;;;13.17;61.03;99440.97;3137162;28;20114;-68
2021/12/23 01:19:36;;;;;;;;;;;;;;;13.18;61.07;99437.34;3138028;28;20056;-69
2021/12/23 01:21:16;;;;;;;0.57;0.52;;;;;;;13.15;60.93;99438.47;3135747;28;20030;-68
2021/12/23 01:22:47;;;;;;;0.80;0.80;;;;;;;13.15;60.94;99440.31;3135334;28;20162;-69
2021/12/23 01:24:20;;;;;;;0.70;0.70;;;;;;;13.16;61.04;99439.31;3136982;28;20195;-70
2021/12/23 01:25:53;;;;;;;0.60;0.60;;;;;;;13.15;60.93;99435.81;3136695;28;20044;-70
2021/12/23 01:27:25;;;;;;;0.70;0.70;;;;;;;13.15;60.98;99435.81;3139722;28;20051;-69
2021/12/23 01:29:00;;;;;;;1.40;1.00;;;;;;;13.15;61.02;99430.47;3139186;28;20139;-70
2021/12/23 01:30:32;;;;;;;0.70;0.70;;;;;;;13.14;61.07;99442.09;3134257;28;20048;-70
2021/12/23 01:32:06;;;;;;;0.85;0.65;;;;;;;13.14;61.00;99436.78;3137087;28;20785;-69
2021/12/23 01:33:37;;;;;;;1.17;0.93;;;;;;;13.15;61.04;99442.97;3135404;28;20421;-69
2021/12/23 01:35:09;;;;;;;;;;;;;;;13.15;61.09;99440.31;3137879;28;20131;-70
2021/12/23 01:36:41;;;;;;;0.70;0.70;;;;;;;13.13;60.96;99437.78;3136091;28;19992;-69
2021/12/23 01:38:13;;;;;;;0.90;0.90;;;;;;;13.12;60.99;99436.09;3133011;28;20052;-69
2021/12/23 01:39:45;;;;;;;0.50;0.50;;;;;;;13.13;61.03;99442.25;3135203;28;20059;-69
2021/12/23 01:41:17;;;;;;;;;;;;;;;13.12;60.88;99438.78;3138782;28;20545;-70
2021/12/23 01:42:49;;;;;;;;;;;;;;;13.12;60.97;99446.75;3129061;28;19920;-69
2021/12/23 01:44:22;;;;;;;1.10;1.00;;;;;;;13.13;60.99;99437.78;3134708;28;20015;-68
2021/12/23 01:45:54;;;;;;;0.73;0.73;;;;;;;13.12;61.03;99436.09;3135168;28;20044;-69
2021/12/23 01:47:25;;;;;;;;;;;;;;;13.12;60.97;99435.25;3135552;28;20140;-69
2021/12/23 01:48:57;;;;;;;0.60;0.60;;;;;;;13.11;60.96;99431.75;3138329;28;19928;-69
2021/12/23 01:50:30;;;;;;;0.60;0.60;;;;;;;13.11;60.93;99439.75;3137648;28;20045;-69
2021/12/23 01:52:02;;;;;;;1.30;1.17;;;;;;;13.11;61.05;99434.41;3139708;28;20041;-70
2021/12/23 01:53:34;;;;;;;1.00;0.90;;;;;;;13.10;61.02;99435.41;3137422;28;20044;-70
2021/12/23 01:55:06;;;;;;;;;;;;;;;13.11;60.79;99439.75;3133484;28;20135;-70
2021/12/23 01:56:38;;;;;;;;;;;;;;;13.11;60.92;99433.56;3137738;28;19963;-70
2021/12/23 01:58:12;;;;;;;0.57;0.57;;;;;;;13.09;61.01;99438.22;3136625;28;19920;-69
2021/12/23 01:59:46;;;;;;;1.35;1.10;;;;;;;13.09;61.04;99427.56;3137298;28;20059;-70
2021/12/23 02:01:18;;;;;;;0.90;0.70;;;;;;;13.08;61.06;99439.22;3136459;28;20056;-69
2021/12/23 02:02:50;;;;;;;1.10;1.00;;;;;;;13.08;60.95;99437.38;3133997;28;20143;-69
2021/12/23 02:04:22;;;;;;;0.70;0.70;;;;;;;13.08;61.04;99436.53;3133923;28;20052;-69
2021/12/23 02:05:54;;;;;;;;;;;;;;;13.07;61.16;99425.06;3138339;28;20140;-69
2021/12/23 02:07:26;;;;;;;1.17;1.08;;;;;;;13.06;60.92;99428.69;3136388;28;19943;-69
2021/12/23 02:08:57;;;;;;;1.02;0.90;;;;;;;13.07;61.00;99441.03;3137266;28;20513;-68
2021/12/23 02:10:29;;;;;;;;;;;;;;;13.06;60.87;99428.69;3133448;28;20045;-69
2021/12/23 02:12:00;;;;;;;1.65;0.70;;;;;;;13.06;60.98;99425.19;3137915;28;19928;-68
2021/12/23 02:13:34;;;;;;;1.05;0.80;;;;;;;13.04;60.97;99417.38;3137578;28;20618;-68
2021/12/23 02:15:08;;;;;;;1.00;0.88;;;;;;;13.04;61.07;99420.03;3128223;28;20071;-68
2021/12/23 02:16:40;;;;;;;0.60;0.60;;;;;;;13.06;61.08;99423.34;3137682;28;20049;-70
2021/12/23 02:18:11;;;;;;;;;;;;;;;13.04;61.07;99422.69;3139814;28;20115;-69
2021/12/23 02:19:43;;;;;;;1.10;0.68;;;;;;;13.04;61.12;99409.38;3135646;28;19920;-69
2021/12/23 02:21:16;;;;;;;;;;;;;;;13.03;61.21;99407.69;3138512;28;20044;-70
2021/12/23 02:22:48;;;;;;;0.75;0.60;;;;;;;13.03;61.06;99410.34;3137371;28;19928;-69
2021/12/23 02:24:20;;;;;;;1.23;0.82;;;;;;;13.03;61.05;99409.50;3133858;28;20056;-69
2021/12/23 02:25:52;;;;;;;0.98;0.70;;;;;;;13.03;60.95;99410.34;3137751;28;20131;-70
2021/12/23 02:27:23;;;;;;;0.60;0.60;;;;;;;13.02;61.04;99406.00;3135942;28;20045;-69
2021/12/23 02:28:55;;;;;;;1.03;0.80;;;;;;;13.02;61.09;99406.00;3135042;28;20040;-70
2021/12/23 02:30:28;;;;;;;;;;;;;;;13.01;61.00;99400.81;3136256;28;20294;-70
2021/12/23 02:32:00;;;;;;;0.80;0.80;;;;;;;13.02;61.06;99394.53;3134209;28;20003;-68
2021/12/23 02:33:34;;;;;;;0.75;0.75;;;;;;;13.01;61.10;99396.38;3131814;28;20041;-69
2021/12/23 02:35:08;;;;;;;0.90;0.85;;;;;;;13.01;61.05;99395.50;3133811;28;20052;-69
2021/12/23 02:36:41;;;;;;;1.00;0.65;;;;;;;13.01;61.07;99399.03;3131719;28;20140;-70
2021/12/23 02:38:13;;;;;;;1.58;0.90;;;;;;;12.99;61.13;99387.66;3137424;28;20425;-69
2021/12/23 02:39:45;;;;;;;0.77;0.77;;;;;;;12.99;61.03;99390.34;3134459;28;20048;-69
2021/12/23 02:41:16;;;;;;;0.82;0.82;;;;;;;13.00;61.11;99392.00;3134998;28;20049;-68
2021/12/23 02:42:48;;;;;;;;;;;;;;;13.00;60.94;99386.69;3136125;28;20132;-70
2021/12/23 02:44:20;;;;;;;0.60;0.57;;;;;;;12.99;61.09;99385.00;3137562;28;20380;-70
2021/12/23 02:45:54;;;;;;;1.15;0.80;;;;;;;12.98;61.02;99380.66;3135801;28;20139;-69
2021/12/23 02:47:26;;;;;;;0.60;0.60;;;;;;;12.99;61.13;99381.50;3128700;28;20425;-69
2021/12/23 02:48:57;;;;;;;;;;;;;;;12.99;61.03;99389.50;3136836;28;20474;-70
2021/12/23 02:50:29;;;;;;;0.80;0.80;;;;;;;12.98;61.12;99385.97;3135382;28;20007;-70
2021/12/23 02:52:02;;;;;;;1.35;0.90;;;;;;;12.98;61.05;99383.31;3133669;28;20163;-69
2021/12/23 02:53:35;;;;;;;0.60;0.60;;;;;;;12.97;60.99;99386.97;3133138;28;20049;-69
2021/12/23 02:55:07;;;;;;;0.70;0.70;;;;;;;12.96;61.03;99391.47;3136331;28;20053;-69
2021/12/23 02:56:39;;;;;;;2.17;0.88;;;;;;;12.96;61.08;99385.31;3136295;28;20041;-69
2021/12/23 02:58:11;;;;;;;;;;;;;;;12.96;61.06;99380.81;3137400;28;20072;-69
2021/12/23 02:59:42;;;;;;;0.57;0.57;;;;;;;12.96;61.13;99383.47;3137505;28;19920;-69
2021/12/23 03:01:15;;;;;;;;;;;;;;;12.95;60.93;99379.16;3133921;28;20452;-69
2021/12/23 03:02:47;;;;;;;1.10;0.77;;;;;;;12.96;61.05;99379.97;3134817;28;19986;-68
2021/12/23 03:04:19;;;;;;;1.02;0.70;;;;;;;12.95;61.07;99378.28;3135449;28;20075;-69
2021/12/23 03:05:51;;;;;;;;;;;;;;;12.94;61.27;99377.47;3135002;28;20413;-68
2021/12/23 03:07:25;;;;;;;0.60;0.60;;;;;;;12.94;61.08;99381.94;3133394;28;19931;-69
2021/12/23 03:08:59;;;;;;;0.80;0.77;;;;;;;12.93;61.17;99377.63;3138087;28;20055;-68
2021/12/23 03:10:31;;;;;;;0.75;0.75;;;;;;;12.94;61.17;99381.94;3131121;28;20055;-68
2021/12/23 03:12:03;;;;;;;0.77;0.77;;;;;;;12.94;60.86;99379.28;3138076;28;20049;-68
2021/12/23 03:13:35;;;;;;;1.00;0.90;;;;;;;12.93;61.15;99383.78;3135446;28;20789;-68
2021/12/23 03:15:08;;;;;;;0.77;0.70;;;;;;;12.94;61.12;99377.47;3131014;28;20048;-68
2021/12/23 03:16:40;;;;;;;0.60;0.60;;;;;;;12.93;61.04;99375.78;3130761;28;20056;-69
2021/12/23 03:18:11;;;;;;;;;;;;;;;12.92;61.15;99375.94;3137846;28;20136;-68
2021/12/23 03:19:43;;;;;;;0.55;0.50;;;;;;;12.92;61.12;99378.59;3135804;28;19920;-69
2021/12/23 03:21:14;;;;;;;0.50;0.50;;;;;;;12.91;60.99;99383.09;3127575;28;20381;-68
2021/12/23 03:22:47;;;;;;;1.10;0.97;;;;;;;12.91;61.06;99377.75;3134630;28;20053;-68
2021/12/23 03:24:19;;;;;;;0.85;0.60;;;;;;;12.91;61.15;99379.59;3137526;28;20355;-68
2021/12/23 03:25:51;;;;;;;0.77;0.60;;;;;;;12.91;61.06;99390.25;3129371;28;20053;-68
2021/12/23 03:27:23;;;;;;;;;;;;;;;12.90;61.21;99397.41;3134833;28;20124;-69
2021/12/23 03:28:55;;;;;;;0.65;0.60;;;;;;;12.90;61.07;99397.41;3135005;28;20006;-69
2021/12/23 03:30:26;;;;;;;1.05;0.95;;;;;;;12.91;61.17;99408.88;3134485;28;20045;-68
2021/12/23 03:31:58;;;;;;;0.95;0.95;;;;;;;12.90;61.02;99407.22;3138328;28;20040;-68
2021/12/23 03:33:30;;;;;;;0.80;0.80;;;;;;;12.91;60.96;99400.88;3134546;28;20044;-69
2021/12/23 03:35:02;;;;;;;1.15;1.02;;;;;;;12.91;60.97;99403.56;3137393;28;20044;-69
2021/12/23 03:36:34;;;;;;;0.93;0.55;;;;;;;12.90;61.14;99391.25;3135081;28;20091;-69
2021/12/23 03:38:09;;;;;;;0.88;0.70;;;;;;;12.90;61.11;99393.91;3137911;28;20135;-69
2021/12/23 03:39:41;;;;;;;0.80;0.80;;;;;;;12.88;61.05;99390.53;3134355;28;20730;-68
2021/12/23 03:41:14;;;;;;;1.27;0.90;;;;;;;12.89;61.05;99397.53;3135062;28;20044;-69
2021/12/23 03:42:46;;;;;;;0.80;0.77;;;;;;;12.89;61.14;99389.53;3132855;28;20059;-69
2021/12/23 03:44:18;;;;;;;1.33;0.80;;;;;;;12.88;61.15;99391.38;3135635;28;20568;-69
2021/12/23 03:45:51;;;;;;;;;;;;;;;12.87;60.98;99389.72;3132995;28;20049;-69
2021/12/23 03:47:22;;;;;;;0.68;0.68;;;;;;;12.87;61.09;99383.50;3134160;28;20013;-69
2021/12/23 03:48:54;;;;;;;;;;;;;;;12.87;61.30;99383.50;3137600;28;20128;-69
2021/12/23 03:50:27;;;;;;;0.63;0.63;;;;;;;12.86;60.95;99388.00;3133844;28;19931;-68
2021/12/23 03:51:59;;;;;;;0.82;0.82;;;;;;;12.87;61.07;99386.19;3134544;28;20041;-69
2021/12/23 03:53:32;;;;;;;0.80;0.80;;;;;;;12.84;61.02;99379.34;3128563;28;20135;-69
2021/12/23 03:55:05;;;;;;;0.50;0.50;;;;;;;12.85;61.00;99380.19;3135217;28;20045;-69
2021/12/23 03:56:36;;;;;;;1.17;0.80;;;;;;;12.84;60.95;99373.16;3134685;28;20048;-68
2021/12/23 03:58:08;;;;;;;0.52;0.52;;;;;;;12.84;61.09;99362.53;3135785;28;20092;-68
2021/12/23 03:59:40;;;;;;;1.27;0.77;;;;;;;12.85;61.17;99361.56;3134391;28;20045;-69
2021/12/23 04:01:12;;;;;;;;;;;;;;;12.84;61.17;99360.72;3138093;28;20159;-69
2021/12/23 04:02:44;;;;;;;0.65;0.65;;;;;;;12.83;61.16;99364.34;3135209;28;19927;-69
2021/12/23 04:04:16;;;;;;;0.80;0.60;;;;;;;12.83;61.20;99364.34;3131155;28;20652;-69
2021/12/23 04:05:48;;;;;;;1.00;0.68;;;;;;;12.83;61.12;99367.00;3134144;28;20492;-69
2021/12/23 04:07:20;;;;;;;0.73;0.70;;;;;;;12.84;61.19;99359.84;3129518;28;20104;-69
2021/12/23 04:08:53;;;;;;;;;;;;;;;12.84;61.16;99362.53;3135329;28;20071;-68
2021/12/23 04:10:24;;;;;;;1.05;0.93;;;;;;;12.82;61.04;99362.69;3136964;28;19927;-68
2021/12/23 04:11:56;;;;;;;0.57;0.50;;;;;;;12.82;61.12;99357.34;3138849;28;20048;-69
2021/12/23 04:13:27;;;;;;;;;;;;;;;12.82;61.18;99354.69;3135110;28;20131;-69
2021/12/23 04:14:59;;;;;;;0.63;0.63;;;;;;;12.81;61.14;99360.16;3137152;28;20396;-69
2021/12/23 04:16:31;;;;;;;0.80;0.70;;;;;;;12.82;61.09;99365.34;3133061;28;20132;-68
2021/12/23 04:18:03;;;;;;;;;;;;;;;12.82;61.14;99367.19;3136994;28;20128;-69
2021/12/23 04:19:35;;;;;;;0.95;0.80;;;;;;;12.81;61.20;99370.81;3133892;28;19925;-69
2021/12/23 04:21:07;;;;;;;0.60;0.60;;;;;;;12.81;61.09;99368.16;3136491;28;20049;-69
2021/12/23 04:22:39;;;;;;;0.98;0.82;;;;;;;12.80;61.15;99364.66;3132985;28;20045;-69
2021/12/23 04:24:12;;;;;;;;;;;;;;;12.79;61.07;99365.66;3133049;28;20140;-68
2021/12/23 04:25:43;;;;;;;0.70;0.60;;;;;;;12.80;61.19;99364.66;3131054;28;19924;-69
2021/12/23 04:27:15;;;;;;;;;;;;;;;12.80;61.26;99369.13;3129089;28;20131;-69
2021/12/23 04:28:47;;;;;;;1.10;0.93;;;;;;;12.79;61.23;99372.78;3134661;28;20015;-68
2021/12/23 04:30:21;;;;;;;0.75;0.75;;;;;;;12.80;61.09;99367.31;3133973;28;20060;-69
2021/12/23 04:31:53;;;;;;;1.20;0.80;;;;;;;12.78;61.12;99366.63;3133274;28;20518;-69
2021/12/23 04:33:26;;;;;;;0.63;0.63;;;;;;;12.79;61.15;99359.47;3137154;28;22179;-68
2021/12/23 04:34:58;;;;;;;1.00;0.88;;;;;;;12.78;61.16;99360.47;3132933;28;20132;-69
2021/12/23 04:36:30;;;;;;;0.85;0.80;;;;;;;12.78;61.23;99366.63;3136836;28;20133;-69
2021/12/23 04:38:02;;;;;;;1.05;0.65;;;;;;;12.78;61.36;99365.78;3136137;28;20052;-69
2021/12/23 04:39:35;;;;;;;1.02;0.65;;;;;;;12.77;61.11;99358.78;3137169;28;20541;-69
2021/12/23 04:41:07;;;;;;;0.60;0.60;;;;;;;12.77;61.01;99358.78;3135082;28;20136;-69
2021/12/23 04:42:39;;;;;;;1.17;1.00;;;;;;;12.76;61.23;99360.63;3132013;28;20072;-69
2021/12/23 04:44:11;;;;;;;0.70;0.70;;;;;;;12.77;61.01;99369.44;3130102;28;20049;-69
2021/12/23 04:45:43;;;;;;;1.00;0.82;;;;;;;12.77;61.03;99377.44;3130347;28;20048;-69
2021/12/23 04:47:13;;;;;;;;;;;;;;;12.77;61.13;99385.41;3134549;28;20814;-69
2021/12/23 04:48:45;;;;;;;0.52;0.50;;;;;;;12.77;61.13;99374.75;3135077;28;19929;-68
2021/12/23 04:50:18;;;;;;;;;;;;;;;12.75;61.12;99372.25;3130919;28;20052;-69
2021/12/23 04:51:50;;;;;;;0.95;0.63;;;;;;;12.74;61.05;99376.72;3129191;28;20377;-68
2021/12/23 04:53:21;;;;;;;0.68;0.68;;;;;;;12.74;61.17;99379.38;3130792;28;20987;-68
2021/12/23 04:54:55;;;;;;;0.73;0.50;;;;;;;12.75;61.24;99383.72;3134834;28;21352;-69
2021/12/23 04:56:26;;;;;;;0.55;0.55;;;;;;;12.74;61.04;99379.38;3134925;28;20048;-68
2021/12/23 04:57:58;;;;;;;0.95;0.77;;;;;;;12.74;61.27;99376.72;3132579;28;20778;-69
2021/12/23 04:59:29;;;;;;;0.95;0.95;;;;;;;12.73;61.13;99367.06;3125526;28;20136;-70
2021/12/23 05:01:03;;;;;;;1.30;0.97;;;;;;;12.72;61.13;99373.38;3131266;28;20421;-68
2021/12/23 05:02:34;;;;;;;0.63;0.63;;;;;;;12.73;61.20;99374.19;3133683;28;20090;-69
2021/12/23 05:04:06;;;;;;;;;;;;;;;12.72;61.25;99368.03;3137593;28;21144;-69
2021/12/23 05:05:38;;;;;;;1.27;1.00;;;;;;;12.72;61.22;99365.38;3133607;28;20011;-69
2021/12/23 05:07:09;;;;;;;;;;;;;;;12.73;61.28;99359.09;3135158;28;20135;-69
2021/12/23 05:08:41;;;;;;;0.82;0.70;;;;;;;12.72;61.20;99351.25;3129506;28;19924;-69
2021/12/23 05:10:16;;;;;;;0.95;0.80;;;;;;;12.71;61.18;99353.06;3137838;28;20053;-69
2021/12/23 05:11:48;;;;;;;0.70;0.57;;;;;;;12.71;61.16;99358.38;3135920;28;20123;-69
2021/12/23 05:13:20;;;;;;;1.50;0.90;;;;;;;12.71;61.12;99358.38;3137258;28;20147;-68
2021/12/23 05:14:51;;;;;;;;;;;;;;;12.71;61.22;99352.22;3135596;28;20139;-68
2021/12/23 05:16:23;;;;;;;0.82;0.77;;;;;;;12.71;61.18;99354.91;3135051;28;19925;-69
2021/12/23 05:17:55;;;;;;;0.90;0.70;;;;;;;12.70;61.22;99348.75;3134592;28;20503;-69
2021/12/23 05:19:27;;;;;;;1.40;1.30;;;;;;;12.70;61.26;99353.19;3138228;28;20142;-69
2021/12/23 05:20:58;;;;;;;;;;;;;;;12.70;61.21;99354.06;3136099;28;20147;-69
2021/12/23 05:22:30;;;;;;;0.75;0.75;;;;;;;12.70;61.21;99354.06;3135147;28;20019;-69
2021/12/23 05:24:02;;;;;;;;;;;;;;;12.69;61.35;99347.03;3138098;28;20099;-69
2021/12/23 05:25:35;;;;;;;1.60;0.88;;;;;;;12.70;61.19;99351.41;3133476;28;20329;-68
2021/12/23 05:27:07;;;;;;;0.82;0.70;;;;;;;12.69;61.16;99355.03;3133439;28;20052;-69
2021/12/23 05:28:39;;;;;;;1.48;0.70;;;;;;;12.70;61.13;99354.06;3136657;28;20163;-69
2021/12/23 05:30:14;;;;;;;0.90;0.90;;;;;;;12.69;61.09;99352.38;3135798;28;20067;-69
2021/12/23 05:31:46;;;;;;;1.00;0.90;;;;;;;12.69;61.14;99357.69;3134036;28;20061;-68
2021/12/23 05:33:18;;;;;;;0.88;0.70;;;;;;;12.68;61.20;99356.03;3126562;28;20052;-68
2021/12/23 05:34:49;;;;;;;0.80;0.77;;;;;;;12.68;61.17;99355.19;3136183;28;20056;-69
2021/12/23 05:36:21;;;;;;;0.80;0.80;;;;;;;12.68;61.36;99348.03;3136968;28;20048;-68
2021/12/23 05:37:53;;;;;;;;;;;;;;;12.66;61.26;99358.00;3138114;28;20136;-69
2021/12/23 05:39:25;;;;;;;0.80;0.68;;;;;;;12.68;61.24;99356.03;3137229;28;20016;-69
2021/12/23 05:40:58;;;;;;;;;;;;;;;12.66;61.26;99358.00;3136561;28;20072;-69
2021/12/23 05:42:30;;;;;;;0.47;0.47;;;;;;;12.67;61.14;99364.97;3135582;28;19932;-68
2021/12/23 05:44:01;;;;;;;0.85;0.82;;;;;;;12.67;61.14;99364.97;3137975;28;20124;-68
2021/12/23 05:45:33;;;;;;;;;;;;;;;12.66;61.12;99363.31;3138530;28;20625;-69
2021/12/23 05:47:05;;;;;;;1.40;0.80;;;;;;;12.67;61.16;99359.66;3133108;28;19931;-69
2021/12/23 05:48:37;;;;;;;0.60;0.60;;;;;;;12.66;61.33;99365.97;3135392;28;20702;-70
2021/12/23 05:50:11;;;;;;;0.80;0.70;;;;;;;12.66;61.20;99365.16;3136234;28;20136;-70
2021/12/23 05:51:42;;;;;;;0.75;0.75;;;;;;;12.65;61.42;99359.00;3131264;28;20646;-69
2021/12/23 05:53:14;;;;;;;0.60;0.57;;;;;;;12.65;61.20;99366.13;3133519;28;20048;-69
2021/12/23 05:54:46;;;;;;;0.70;0.70;;;;;;;12.64;61.21;99362.63;3136589;28;20683;-69
2021/12/23 05:56:20;;;;;;;1.58;0.90;;;;;;;12.64;61.08;99362.63;3136243;28;20044;-69
2021/12/23 05:57:52;;;;;;;0.95;0.73;;;;;;;12.63;61.14;99360.94;3134903;28;20056;-69
2021/12/23 05:59:24;;;;;;;1.05;0.95;;;;;;;12.63;61.40;99360.94;3136385;28;20065;-70
2021/12/23 06:00:56;;;;;;;0.75;0.75;;;;;;;12.63;61.20;99352.97;3138616;28;20071;-69
2021/12/23 06:02:28;;;;;;;0.88;0.80;;;;;;;12.63;61.21;99352.13;3132206;28;20053;-69
2021/12/23 06:04:00;;;;;;;1.23;0.90;;;;;;;12.63;61.26;99352.97;3135619;28;20413;-68
2021/12/23 06:05:31;;;;;;;;;;;;;;;12.62;61.21;99348.63;3132052;28;20044;-68
2021/12/23 06:07:04;;;;;;;1.30;0.82;;;;;;;12.62;61.21;99345.97;3127907;28;19924;-68
2021/12/23 06:08:36;;;;;;;0.93;0.93;;;;;;;12.63;61.15;99352.13;3136262;28;20500;-70
2021/12/23 06:10:09;;;;;;;0.98;0.77;;;;;;;12.61;61.15;99344.28;3137938;28;20052;-69
2021/12/23 06:11:44;;;;;;;0.60;0.60;;;;;;;12.62;61.24;99339.78;3135238;28;20514;-69
2021/12/23 06:13:16;;;;;;;0.77;0.77;;;;;;;12.62;61.28;99342.47;3137810;28;20052;-68
2021/12/23 06:14:48;;;;;;;0.82;0.80;;;;;;;12.62;61.10;99345.13;3135121;28;20095;-69
2021/12/23 06:16:19;;;;;;;0.73;0.70;;;;;;;12.61;61.08;99348.78;3135940;28;20056;-68
2021/12/23 06:17:51;;;;;;;1.10;0.80;;;;;;;12.61;61.32;99349.59;3134332;28;20049;-69
2021/12/23 06:19:23;;;;;;;1.15;0.82;;;;;;;12.61;61.14;99343.44;3134980;28;21093;-68
2021/12/23 06:20:54;;;;;;;;;;;;;;;12.60;61.21;99350.59;3134808;28;20124;-69
2021/12/23 06:22:27;;;;;;;0.80;0.80;;;;;;;12.60;61.21;99344.44;3134098;28;20054;-68
2021/12/23 06:23:59;;;;;;;0.70;0.70;;;;;;;12.60;61.22;99341.78;3132880;28;20041;-68
2021/12/23 06:25:31;;;;;;;0.68;0.65;;;;;;;12.60;61.23;99353.25;3130896;28;20064;-68
2021/12/23 06:27:04;;;;;;;;;;;;;;;12.60;61.30;99347.94;3136822;28;20103;-69
2021/12/23 06:28:36;;;;;;;0.98;0.98;;;;;;;12.60;61.18;99342.63;3136829;28;19924;-69
2021/12/23 06:30:15;;;;;;;;;;;;;;;12.58;61.09;99341.91;3136165;28;20136;-69
2021/12/23 06:31:46;;;;;;;0.82;0.70;;;;;;;12.58;61.20;99347.25;3131665;28;20381;-68
2021/12/23 06:33:18;;;;;;;;;;;;;;;12.58;61.26;99344.59;3135696;28;20131;-70
2021/12/23 06:34:50;;;;;;;0.63;0.63;;;;;;;12.57;61.29;99337.59;3134330;28;20625;-69
2021/12/23 06:36:22;;;;;;;0.93;0.70;;;;;;;12.59;61.20;99340.09;3136190;28;20410;-70
2021/12/23 06:37:54;;;;;;;0.70;0.63;;;;;;;12.57;61.16;99334.94;3133813;28;20135;-69
2021/12/23 06:39:26;;;;;;;0.35;0.35;;;;;;;12.55;61.27;99331.56;3127405;28;20040;-68
2021/12/23 06:40:57;;;;;;;;;;;;;;;12.57;61.22;99339.41;3137095;28;20128;-69
2021/12/23 06:42:30;;;;;;;0.52;0.52;;;;;;;12.56;61.15;99341.22;3138482;28;19986;-69
2021/12/23 06:44:02;;;;;;;0.68;0.68;;;;;;;12.57;61.21;99342.91;3134155;28;20037;-69
2021/12/23 06:45:34;;;;;;;1.02;0.93;;;;;;;12.56;61.00;99335.06;3131225;28;20533;-68
2021/12/23 06:47:06;;;;;;;0.60;0.60;;;;;;;12.56;61.24;99346.53;3134158;28;20068;-69
2021/12/23 06:48:38;;;;;;;1.08;0.98;;;;;;;12.55;61.32;99344.03;3132547;28;20136;-69
2021/12/23 06:50:11;;;;;;;0.68;0.60;;;;;;;12.54;61.29;99337.88;3132900;28;20072;-69
2021/12/23 06:51:44;;;;;;;0.73;0.60;;;;;;;12.53;61.29;99339.69;3138069;28;20059;-68
2021/12/23 06:53:16;;;;;;;0.77;0.77;;;;;;;12.53;61.21;99341.53;3134758;28;20048;-70
2021/12/23 06:54:53;;;;;;;1.50;0.93;;;;;;;12.53;61.34;99349.50;3133592;28;20139;-69
2021/12/23 06:56:24;;;;;;;1.20;1.10;;;;;;;12.53;61.19;99338.84;3131660;28;20068;-66
2021/12/23 06:57:57;;;;;;;;;;;;;;;12.53;61.28;99342.34;3134238;28;20741;-70
2021/12/23 06:59:29;;;;;;;1.13;1.02;;;;;;;12.53;61.32;99349.50;3135005;28;20020;-69
2021/12/23 07:01:01;;;;;;;;;;;;;;;12.53;61.23;99346.84;3137990;28;20048;-69
2021/12/23 07:02:35;;;;;;;0.68;0.60;;;;;;;12.53;61.10;99341.53;3137129;28;20007;-69
2021/12/23 07:04:13;;;;;;;1.02;0.60;;;;;;;12.51;61.22;99349.66;3136266;28;20079;-69
2021/12/23 07:05:45;;;;;;;0.63;0.57;;;;;;;12.52;61.24;99353.16;3137981;28;20101;-68
2021/12/23 07:07:26;;;;;;;;;;;;;;;12.53;61.16;99355.66;3135975;28;20163;-70
2021/12/23 07:08:58;;;;;;;1.10;1.00;;;;;;;12.52;61.16;99351.31;3132624;28;20058;-69
2021/12/23 07:10:31;;;;;;;0.90;0.80;;;;;;;12.52;61.16;99358.47;3133560;28;20128;-70
2021/12/23 07:12:04;;;;;;;0.88;0.88;;;;;;;12.51;61.26;99360.31;3125122;28;20036;-69
2021/12/23 07:13:37;;;;;;;1.02;0.93;;;;;;;12.51;61.30;99359.47;3135156;28;20052;-69
2021/12/23 07:15:10;;;;;;;0.75;0.70;;;;;;;12.50;61.27;99357.78;3133609;28;20541;-69
2021/12/23 07:16:42;;;;;;;0.70;0.70;;;;;;;12.52;61.29;99355.81;3132846;28;20036;-69
2021/12/23 07:18:15;;;;;;;0.60;0.60;;;;;;;12.51;61.27;99359.47;3134640;28;20187;-69
2021/12/23 07:19:46;;;;;;;0.90;0.70;;;;;;;12.50;61.29;99365.75;3129815;28;20064;-70
2021/12/23 07:21:18;;;;;;;;;;;;;;;12.50;61.32;99368.41;3137383;28;20711;-70
2021/12/23 07:22:50;;;;;;;0.75;0.75;;;;;;;12.49;61.19;99362.28;3132285;28;20003;-69
2021/12/23 07:24:22;;;;;;;0.80;0.80;;;;;;;12.48;61.29;99360.59;3139056;28;20059;-69
2021/12/23 07:25:54;;;;;;;0.80;0.80;;;;;;;12.47;61.16;99356.25;3136264;28;20052;-69